createdAt,value
2022-12-11T00:00:50.046Z,100902.41
2022-12-11T00:03:22.587Z,100897.59
2022-12-11T00:05:55.768Z,100901.00
2022-12-11T00:08:28.355Z,100890.75
2022-12-11T00:11:01.045Z,100888.75
2022-12-11T00:13:33.636Z,100887.09
2022-12-11T00:16:06.764Z,100894.59
2022-12-11T00:18:39.875Z,100890.41
2022-12-11T00:21:15.373Z,100887.75
2022-12-11T00:23:48.128Z,100882.78
2022-12-11T00:26:21.069Z,100885.16
2022-12-11T00:28:56.521Z,100883.56
2022-12-11T00:31:31.896Z,100885.22
2022-12-11T00:34:04.546Z,100894.72
2022-12-11T00:36:37.093Z,100895.94
2022-12-11T00:39:12.032Z,100893.13
2022-12-11T00:41:44.544Z,100891.53
2022-12-11T00:44:17.065Z,100892.38
2022-12-11T00:46:50.028Z,100889.16
2022-12-11T00:49:22.577Z,100887.22
2022-12-11T00:51:55.126Z,100889.91
2022-12-11T00:54:27.648Z,100883.31
2022-12-11T00:57:00.296Z,100887.22
2022-12-11T00:59:32.868Z,100876.97
2022-12-11T01:02:05.426Z,100884.44
2022-12-11T01:04:38.102Z,100882.66
2022-12-11T01:07:10.839Z,100883.78
2022-12-11T01:10:01.833Z,100884.56
2022-12-11T01:12:34.673Z,100873.47
2022-12-11T01:15:08.043Z,100876.53
2022-12-11T01:17:40.960Z,100879.41
2022-12-11T01:20:13.532Z,100876.97
2022-12-11T01:22:46.271Z,100880.06
2022-12-11T01:25:19.120Z,100888.97
2022-12-11T01:27:54.025Z,100884.63
2022-12-11T01:30:26.804Z,100880.50
2022-12-11T01:33:00.807Z,100887.47
2022-12-11T01:35:33.401Z,100891.09
2022-12-11T01:38:05.958Z,100885.53
2022-12-11T01:40:38.548Z,100888.97
2022-12-11T01:43:11.831Z,100884.50
2022-12-11T01:45:48.171Z,100882.25
2022-12-11T01:48:27.397Z,100874.28
2022-12-11T01:51:04.994Z,100875.94
2022-12-11T01:53:45.749Z,100870.09
2022-12-11T01:56:19.221Z,100875.19
2022-12-11T01:58:57.508Z,100864.03
2022-12-11T02:01:54.208Z,100872.78
2022-12-11T02:04:29.440Z,100865.00
2022-12-11T02:07:03.583Z,100872.78
2022-12-11T02:09:41.276Z,100871.94
2022-12-11T02:12:39.243Z,100866.69
2022-12-11T02:15:40.184Z,100867.50
2022-12-11T02:18:47.992Z,100867.34
2022-12-11T02:21:28.460Z,100867.50
2022-12-11T02:24:16.235Z,100868.41
2022-12-11T02:27:07.727Z,100867.16
2022-12-11T02:29:53.732Z,100866.59
2022-12-11T02:32:53.255Z,100869.28
2022-12-11T02:35:40.755Z,100853.50
2022-12-11T02:38:25.135Z,100858.63
2022-12-11T02:41:00.705Z,100861.38
2022-12-11T02:43:37.196Z,100863.19
2022-12-11T02:46:10.636Z,100866.41
2022-12-11T02:48:47.227Z,100855.28
2022-12-11T02:51:26.704Z,100863.19
2022-12-11T02:54:00.492Z,100873.59
2022-12-11T02:56:46.357Z,100869.31
2022-12-11T02:59:35.689Z,100865.75
2022-12-11T03:02:08.621Z,100859.72
2022-12-11T03:04:44.715Z,100861.50
2022-12-11T03:07:27.473Z,100854.91
2022-12-11T03:10:00.760Z,100855.75
2022-12-11T03:12:39.686Z,100848.50
2022-12-11T03:15:17.151Z,100846.16
2022-12-11T03:18:09.737Z,100845.56
2022-12-11T03:20:56.675Z,100841.16
2022-12-11T03:23:42.069Z,100851.72
2022-12-11T03:26:18.768Z,100835.00
2022-12-11T03:28:58.757Z,100839.41
2022-12-11T03:31:50.185Z,100843.53
2022-12-11T03:34:43.963Z,100832.19
2022-12-11T03:37:19.814Z,100838.00
2022-12-11T03:39:59.213Z,100835.47
2022-12-11T03:42:32.633Z,100835.72
2022-12-11T03:45:08.737Z,100830.69
2022-12-11T03:47:46.234Z,100827.94
2022-12-11T03:50:24.777Z,100827.91
2022-12-11T03:53:03.705Z,100827.94
2022-12-11T03:55:40.549Z,100819.38
2022-12-11T03:58:13.370Z,100821.16
2022-12-11T04:00:48.843Z,100815.59
2022-12-11T04:03:21.806Z,100820.75
2022-12-11T04:05:56.017Z,100814.16
2022-12-11T04:08:28.646Z,100820.13
2022-12-11T04:11:23.009Z,100823.75
2022-12-11T04:14:14.156Z,100817.97
2022-12-11T04:16:46.956Z,100811.94
2022-12-11T04:19:52.690Z,100818.97
2022-12-11T04:22:44.126Z,100821.38
2022-12-11T04:25:19.966Z,100817.91
2022-12-11T04:27:53.420Z,100815.38
2022-12-11T04:30:32.336Z,100818.19
2022-12-11T04:33:09.472Z,100810.16
2022-12-11T04:35:42.004Z,100807.53
2022-12-11T04:38:16.013Z,100806.63
2022-12-11T04:40:48.631Z,100813.44
2022-12-11T04:43:22.104Z,100808.97
2022-12-11T04:46:11.227Z,100803.00
2022-12-11T04:48:45.249Z,100805.63
2022-12-11T04:51:18.722Z,100801.50
2022-12-11T04:53:51.219Z,100805.84
2022-12-11T04:56:23.972Z,100806.47
2022-12-11T04:58:56.543Z,100808.97
2022-12-11T05:01:29.224Z,100790.00
2022-12-11T05:04:02.304Z,100803.16
2022-12-11T05:06:34.896Z,100800.34
2022-12-11T05:09:13.921Z,100794.47
2022-12-11T05:11:46.495Z,100796.06
2022-12-11T05:14:19.852Z,100802.09
2022-12-11T05:16:52.406Z,100794.91
2022-12-11T05:19:25.920Z,100790.81
2022-12-11T05:21:58.486Z,100796.25
2022-12-11T05:24:33.302Z,100791.81
2022-12-11T05:27:05.972Z,100789.41
2022-12-11T05:29:38.676Z,100784.09
2022-12-11T05:32:11.234Z,100777.75
2022-12-11T05:34:43.953Z,100779.63
2022-12-11T05:37:16.673Z,100781.28
2022-12-11T05:39:49.348Z,100785.63
2022-12-11T05:42:27.165Z,100783.06
2022-12-11T05:45:01.479Z,100786.81
2022-12-11T05:47:35.773Z,100783.28
2022-12-11T05:50:09.092Z,100786.75
2022-12-11T05:52:42.011Z,100787.56
2022-12-11T05:55:15.013Z,100798.78
2022-12-11T05:57:47.619Z,100795.50
2022-12-11T06:00:20.505Z,100792.03
2022-12-11T06:02:53.141Z,100787.78
2022-12-11T06:05:26.839Z,100794.78
2022-12-11T06:07:59.400Z,100792.03
2022-12-11T06:10:32.853Z,100787.78
2022-12-11T06:13:08.341Z,100789.38
2022-12-11T06:15:41.027Z,100788.66
2022-12-11T06:18:13.764Z,100792.97
2022-12-11T06:20:46.324Z,100784.31
2022-12-11T06:23:22.064Z,100791.19
2022-12-11T06:25:54.677Z,100786.97
2022-12-11T06:28:27.328Z,100788.78
2022-12-11T06:31:01.120Z,100780.13
2022-12-11T06:33:35.376Z,100785.25
2022-12-11T06:36:16.691Z,100787.81
2022-12-11T06:38:50.437Z,100791.38
2022-12-11T06:41:23.042Z,100784.31
2022-12-11T06:43:55.763Z,100794.69
2022-12-11T06:46:28.475Z,100784.31
2022-12-11T06:49:01.098Z,100779.78
2022-12-11T06:51:33.848Z,100784.03
2022-12-11T06:54:06.391Z,100783.41
2022-12-11T06:56:39.014Z,100779.03
2022-12-11T06:59:12.781Z,100777.97
2022-12-11T07:01:45.816Z,100778.19
2022-12-11T07:04:18.401Z,100776.16
2022-12-11T07:06:51.152Z,100779.03
2022-12-11T07:09:24.692Z,100790.47
2022-12-11T07:11:57.644Z,100791.31
2022-12-11T07:14:31.190Z,100800.66
2022-12-11T07:17:03.795Z,100796.13
2022-12-11T07:19:36.384Z,100797.25
2022-12-11T07:22:09.057Z,100796.50
2022-12-11T07:24:41.958Z,100806.84
2022-12-11T07:27:14.521Z,100798.19
2022-12-11T07:29:47.048Z,100809.59
2022-12-11T07:32:19.665Z,100814.97
2022-12-11T07:34:52.437Z,100811.16
2022-12-11T07:37:25.309Z,100815.69
2022-12-11T07:39:57.949Z,100807.78
2022-12-11T07:42:30.560Z,100806.28
2022-12-11T07:45:03.409Z,100809.41
2022-12-11T07:47:36.062Z,100803.44
2022-12-11T07:50:10.297Z,100799.69
2022-12-11T07:52:42.872Z,100808.59
2022-12-11T07:55:17.065Z,100810.38
2022-12-11T07:57:49.807Z,100802.56
2022-12-11T08:00:22.687Z,100811.31
2022-12-11T08:02:55.308Z,100798.44
2022-12-11T08:05:27.965Z,100806.16
2022-12-11T08:08:00.592Z,100805.13
2022-12-11T08:10:33.505Z,100805.03
2022-12-11T08:13:06.321Z,100807.84
2022-12-11T08:15:39.085Z,100802.72
2022-12-11T08:18:11.782Z,100809.44
2022-12-11T08:20:44.327Z,100804.44
2022-12-11T08:23:17.088Z,100809.44
2022-12-11T08:25:49.790Z,100809.47
2022-12-11T08:28:23.953Z,100808.72
2022-12-11T08:30:57.549Z,100805.13
2022-12-11T08:33:30.562Z,100814.66
2022-12-11T08:36:05.423Z,100816.16
2022-12-11T08:38:38.393Z,100811.06
2022-12-11T08:41:15.922Z,100808.53
2022-12-11T08:43:48.768Z,100805.22
2022-12-11T08:46:32.556Z,100805.25
2022-12-11T08:49:05.153Z,100803.28
2022-12-11T08:51:38.043Z,100801.56
2022-12-11T08:54:11.746Z,100803.59
2022-12-11T08:56:44.604Z,100793.13
2022-12-11T08:59:18.739Z,100801.69
2022-12-11T09:01:52.298Z,100797.56
2022-12-11T09:04:27.161Z,100801.69
2022-12-11T09:06:59.817Z,100811.31
2022-12-11T09:09:32.439Z,100797.47
2022-12-11T09:12:07.902Z,100797.44
2022-12-11T09:14:40.427Z,100793.63
2022-12-11T09:17:12.963Z,100798.94
2022-12-11T09:19:48.073Z,100792.19
2022-12-11T09:22:20.687Z,100798.31
2022-12-11T09:24:56.260Z,100799.91
2022-12-11T09:27:32.237Z,100795.66
2022-12-11T09:30:05.768Z,100794.66
2022-12-11T09:32:39.825Z,100798.31
2022-12-11T09:35:14.969Z,100788.06
2022-12-11T09:37:47.543Z,100793.94
2022-12-11T09:40:20.638Z,100789.63
2022-12-11T09:43:03.622Z,100794.75
2022-12-11T09:45:36.294Z,100791.31
2022-12-11T09:48:11.762Z,100789.63
2022-12-11T09:50:48.159Z,100787.81
2022-12-11T09:53:34.279Z,100785.16
2022-12-11T09:56:26.112Z,100787.75
2022-12-11T09:59:35.705Z,100780.94
2022-12-11T10:02:45.242Z,100779.31
2022-12-11T10:05:42.791Z,100774.25
2022-12-11T10:09:12.225Z,100774.19
2022-12-11T10:12:33.733Z,100789.56
2022-12-11T10:15:23.603Z,100784.59
2022-12-11T10:18:04.958Z,100769.72
2022-12-11T10:20:40.456Z,100781.78
2022-12-11T10:23:21.931Z,100784.69
2022-12-11T10:26:23.133Z,100778.69
2022-12-11T10:29:01.349Z,100784.84
2022-12-11T10:31:58.915Z,100780.59
2022-12-11T10:34:37.709Z,100774.38
2022-12-11T10:37:10.303Z,100776.09
2022-12-11T10:39:43.030Z,100772.00
2022-12-11T10:42:22.484Z,100774.69
2022-12-11T10:45:04.873Z,100766.09
2022-12-11T10:47:37.630Z,100768.56
2022-12-11T10:50:26.215Z,100765.13
2022-12-11T10:53:01.947Z,100765.97
2022-12-11T10:55:45.657Z,100752.84
2022-12-11T10:58:26.724Z,100749.56
2022-12-11T11:01:16.761Z,100746.09
2022-12-11T11:04:06.647Z,100760.06
2022-12-11T11:06:39.288Z,100752.16
2022-12-11T11:09:36.053Z,100736.44
2022-12-11T11:12:28.311Z,100754.78
2022-12-11T11:15:15.528Z,100747.81
2022-12-11T11:17:55.510Z,100738.22
2022-12-11T11:20:31.706Z,100741.88
2022-12-11T11:23:15.518Z,100741.19
2022-12-11T11:26:07.522Z,100742.91
2022-12-11T11:28:47.994Z,100734.31
2022-12-11T11:31:31.502Z,100742.16
2022-12-11T11:34:16.112Z,100738.78
2022-12-11T11:37:05.979Z,100729.84
2022-12-11T11:39:45.255Z,100726.44
2022-12-11T11:42:36.372Z,100730.03
2022-12-11T11:45:31.616Z,100730.78
2022-12-11T11:48:45.516Z,100740.63
2022-12-11T11:51:30.711Z,100737.16
2022-12-11T11:54:37.424Z,100719.00
2022-12-11T11:57:23.236Z,100719.53
2022-12-11T12:00:10.823Z,100719.53
2022-12-11T12:02:47.110Z,100724.84
2022-12-11T12:05:32.022Z,100729.25
2022-12-11T12:08:53.815Z,100727.59
2022-12-11T12:11:32.740Z,100713.66
2022-12-11T12:17:41.163Z,100717.09
2022-12-11T12:20:38.918Z,100708.34
2022-12-11T12:23:52.999Z,100697.88
2022-12-11T12:26:37.234Z,100705.72
2022-12-11T12:29:44.212Z,100711.88
2022-12-11T12:32:55.379Z,100704.16
2022-12-11T12:35:36.020Z,100702.38
2022-12-11T12:38:32.883Z,100699.72
2022-12-11T12:41:44.948Z,100704.06
2022-12-11T12:44:22.610Z,100707.41
2022-12-11T12:47:13.283Z,100699.66
2022-12-11T12:49:50.098Z,100703.91
2022-12-11T12:52:39.518Z,100705.72
2022-12-11T12:55:23.635Z,100702.09
2022-12-11T12:58:01.001Z,100696.06
2022-12-11T13:00:42.662Z,100703.75
2022-12-11T13:03:22.492Z,100700.28
2022-12-11T13:06:24.737Z,100699.31
2022-12-11T13:09:16.389Z,100695.81
2022-12-11T13:11:55.120Z,100690.69
2022-12-11T13:14:33.655Z,100696.72
2022-12-11T13:17:27.006Z,100693.97
2022-12-11T13:20:22.762Z,100696.91
2022-12-11T13:23:10.277Z,100692.66
2022-12-11T13:25:57.265Z,100692.72
2022-12-11T13:28:33.870Z,100703.97
2022-12-11T13:31:15.513Z,100697.81
2022-12-11T13:33:52.909Z,100702.09
2022-12-11T13:36:40.429Z,100705.63
2022-12-11T13:39:25.146Z,100700.25
2022-12-11T13:42:25.195Z,100700.03
2022-12-11T13:44:58.973Z,100697.66
2022-12-11T13:47:33.260Z,100702.81
2022-12-11T13:50:26.311Z,100704.59
2022-12-11T13:53:03.300Z,100709.91
2022-12-11T13:55:36.098Z,100707.34
2022-12-11T13:58:23.508Z,100707.91
2022-12-11T14:01:22.134Z,100707.91
2022-12-11T14:04:04.764Z,100713.97
2022-12-11T14:06:39.854Z,100709.75
2022-12-11T14:09:24.121Z,100717.69
2022-12-11T14:11:59.065Z,100721.06
2022-12-11T14:14:39.869Z,100711.44
2022-12-11T14:17:25.973Z,100717.53
2022-12-11T14:20:03.575Z,100714.97
2022-12-11T14:22:39.415Z,100715.72
2022-12-11T14:25:26.391Z,100713.91
2022-12-11T14:27:59.001Z,100720.84
2022-12-11T14:30:36.022Z,100716.59
2022-12-11T14:33:11.808Z,100719.09
2022-12-11T14:35:50.258Z,100716.56
2022-12-11T14:38:37.417Z,100711.38
2022-12-11T14:41:40.430Z,100717.34
2022-12-11T14:44:21.660Z,100724.19
2022-12-11T14:47:24.213Z,100721.72
2022-12-11T14:50:07.967Z,100724.19
2022-12-11T14:52:48.056Z,100733.00
2022-12-11T14:55:30.321Z,100723.13
2022-12-11T14:58:15.048Z,100728.00
2022-12-11T15:01:22.771Z,100729.84
2022-12-11T15:04:26.852Z,100732.56
2022-12-11T15:07:00.169Z,100740.38
2022-12-11T15:09:36.130Z,100737.59
2022-12-11T15:12:16.692Z,100734.22
2022-12-11T15:14:58.411Z,100739.44
2022-12-11T15:17:31.355Z,100748.09
2022-12-11T15:20:11.616Z,100737.69
2022-12-11T15:22:44.621Z,100744.66
2022-12-11T15:25:25.133Z,100737.69
2022-12-11T15:28:00.936Z,100742.81
2022-12-11T15:30:35.807Z,100737.69
2022-12-11T15:33:11.326Z,100741.16
2022-12-11T15:35:57.941Z,100743.72
2022-12-11T15:38:41.788Z,100743.72
2022-12-11T15:41:21.037Z,100749.84
2022-12-11T15:43:59.191Z,100744.56
2022-12-11T15:46:36.310Z,100744.56
2022-12-11T15:49:13.261Z,100750.66
2022-12-11T15:51:48.277Z,100753.88
2022-12-11T15:54:21.147Z,100760.00
2022-12-11T15:56:54.402Z,100756.38
2022-12-11T15:59:27.956Z,100762.59
2022-12-11T16:02:00.463Z,100751.31
2022-12-11T16:04:32.941Z,100748.81
2022-12-11T16:07:13.063Z,100745.34
2022-12-11T16:09:47.038Z,100749.56
2022-12-11T16:12:19.625Z,100750.25
2022-12-11T16:14:52.492Z,100747.44
2022-12-11T16:17:28.071Z,100746.00
2022-12-11T16:20:00.607Z,100756.34
2022-12-11T16:22:33.302Z,100755.63
2022-12-11T16:25:06.632Z,100742.44
2022-12-11T16:27:39.211Z,100739.06
2022-12-11T16:30:13.342Z,100746.00
2022-12-11T16:32:46.105Z,100746.03
2022-12-11T16:35:20.723Z,100743.47
2022-12-11T16:37:54.775Z,100743.34
2022-12-11T16:40:27.402Z,100744.38
2022-12-11T16:42:59.956Z,100744.28
2022-12-11T16:45:33.890Z,100742.63
2022-12-11T16:48:06.521Z,100742.69
2022-12-11T16:50:40.429Z,100746.09
2022-12-11T16:53:14.624Z,100738.28
2022-12-11T16:55:47.249Z,100741.06
2022-12-11T16:58:20.184Z,100739.97
2022-12-11T17:00:53.303Z,100738.34
2022-12-11T17:03:25.979Z,100739.31
2022-12-11T17:05:59.234Z,100740.88
2022-12-11T17:08:34.056Z,100738.31
2022-12-11T17:11:11.853Z,100738.34
2022-12-11T17:13:45.148Z,100726.13
2022-12-11T17:16:17.705Z,100740.03
2022-12-11T17:18:50.626Z,100730.38
2022-12-11T17:21:25.210Z,100734.75
2022-12-11T17:23:57.719Z,100734.78
2022-12-11T17:26:30.332Z,100737.34
2022-12-11T17:29:03.477Z,100736.47
2022-12-11T17:31:36.038Z,100734.59
2022-12-11T17:34:08.676Z,100737.06
2022-12-11T17:36:41.504Z,100738.06
2022-12-11T17:39:14.112Z,100736.25
2022-12-11T17:41:46.675Z,100732.81
2022-12-11T17:44:19.456Z,100725.03
2022-12-11T17:46:52.894Z,100727.72
2022-12-11T17:49:26.381Z,100726.78
2022-12-11T17:51:59.401Z,100731.09
2022-12-11T17:54:32.064Z,100736.22
2022-12-11T17:57:06.492Z,100725.94
2022-12-11T17:59:39.376Z,100726.72
2022-12-11T18:02:12.258Z,100739.63
2022-12-11T18:04:45.044Z,100729.34
2022-12-11T18:07:19.624Z,100738.03
2022-12-11T18:09:52.823Z,100725.06
2022-12-11T18:12:25.834Z,100733.75
2022-12-11T18:15:03.432Z,100739.00
2022-12-11T18:17:36.186Z,100735.56
2022-12-11T18:20:14.589Z,100726.78
2022-12-11T18:22:47.632Z,100734.66
2022-12-11T18:25:20.359Z,100738.97
2022-12-11T18:27:55.162Z,100738.16
2022-12-11T18:30:28.808Z,100742.53
2022-12-11T18:33:01.452Z,100735.66
2022-12-11T18:35:34.249Z,100737.31
2022-12-11T18:38:07.789Z,100725.13
2022-12-11T18:40:40.293Z,100728.44
2022-12-11T18:43:13.318Z,100728.53
2022-12-11T18:45:46.674Z,100726.72
2022-12-11T18:48:19.211Z,100724.06
2022-12-11T18:50:52.606Z,100722.41
2022-12-11T18:53:25.311Z,100716.22
2022-12-11T18:56:00.548Z,100718.91
2022-12-11T18:58:34.001Z,100714.31
2022-12-11T19:01:16.397Z,100716.78
2022-12-11T19:03:51.570Z,100724.72
2022-12-11T19:06:28.654Z,100723.78
2022-12-11T19:09:04.231Z,100721.03
2022-12-11T19:11:40.579Z,100720.72
2022-12-11T19:14:13.832Z,100717.44
2022-12-11T19:16:46.625Z,100718.09
2022-12-11T19:19:22.109Z,100729.47
2022-12-11T19:21:54.812Z,100729.47
2022-12-11T19:24:27.843Z,100732.91
2022-12-11T19:27:00.421Z,100734.66
2022-12-11T19:29:33.136Z,100734.66
2022-12-11T19:32:05.916Z,100733.88
2022-12-11T19:34:38.548Z,100733.00
2022-12-11T19:37:11.221Z,100729.50
2022-12-11T19:39:43.714Z,100735.41
2022-12-11T19:42:16.294Z,100733.91
2022-12-11T19:44:48.945Z,100736.59
2022-12-11T19:47:21.541Z,100731.50
2022-12-11T19:49:54.175Z,100736.69
2022-12-11T19:52:27.373Z,100739.38
2022-12-11T19:55:04.738Z,100738.41
2022-12-11T19:57:37.503Z,100747.13
2022-12-11T20:00:10.796Z,100734.31
2022-12-11T20:02:43.365Z,100743.88
2022-12-11T20:05:16.548Z,100742.88
2022-12-11T20:07:49.164Z,100735.22
2022-12-11T20:10:21.802Z,100734.41
2022-12-11T20:12:59.056Z,100736.22
2022-12-11T20:15:32.073Z,100734.47
2022-12-11T20:18:05.014Z,100736.16
2022-12-11T20:20:38.240Z,100733.59
2022-12-11T20:23:10.836Z,100734.41
2022-12-11T20:25:43.454Z,100731.75
2022-12-11T20:28:16.016Z,100737.94
2022-12-11T20:30:50.019Z,100745.72
2022-12-11T20:33:22.589Z,100745.69
2022-12-11T20:35:55.186Z,100746.66
2022-12-11T20:38:34.127Z,100743.09
2022-12-11T20:41:12.005Z,100742.13
2022-12-11T20:43:45.469Z,100746.56
2022-12-11T20:46:18.603Z,100752.66
2022-12-11T20:48:51.776Z,100750.91
2022-12-11T20:51:26.611Z,100750.59
2022-12-11T20:53:59.804Z,100749.09
2022-12-11T20:56:32.644Z,100753.47
2022-12-11T20:59:05.776Z,100761.31
2022-12-11T21:01:40.151Z,100753.47
2022-12-11T21:04:13.000Z,100752.56
2022-12-11T21:06:45.719Z,100750.72
2022-12-11T21:09:18.268Z,100752.66
2022-12-11T21:11:51.356Z,100756.94
2022-12-11T21:14:24.859Z,100761.34
2022-12-11T21:16:59.307Z,100766.41
2022-12-11T21:19:31.926Z,100761.34
2022-12-11T21:22:04.627Z,100763.88
2022-12-11T21:24:37.215Z,100770.88
2022-12-11T21:27:10.041Z,100767.44
2022-12-11T21:29:42.692Z,100774.97
2022-12-11T21:32:15.188Z,100767.25
2022-12-11T21:34:50.424Z,100769.81
2022-12-11T21:37:23.344Z,100774.81
2022-12-11T21:40:00.198Z,100769.03
2022-12-11T21:42:32.762Z,100763.75
2022-12-11T21:47:59.253Z,100771.72
2022-12-11T21:50:32.045Z,100767.31
2022-12-11T21:53:04.663Z,100761.06
2022-12-11T21:55:41.437Z,100767.25
2022-12-11T21:58:13.962Z,100760.19
2022-12-11T22:00:46.629Z,100768.00
2022-12-11T22:03:19.188Z,100766.81
2022-12-11T22:05:51.766Z,100778.09
2022-12-11T22:08:24.369Z,100780.47
2022-12-11T22:10:57.163Z,100779.63
2022-12-11T22:13:29.739Z,100785.00
2022-12-11T22:16:02.486Z,100779.75
2022-12-11T22:18:35.053Z,100778.94
2022-12-11T22:21:08.048Z,100781.38
2022-12-11T22:23:42.907Z,100791.06
2022-12-11T22:26:20.662Z,100784.75
2022-12-11T22:28:54.735Z,100782.75
2022-12-11T22:31:28.145Z,100780.53
2022-12-11T22:34:00.675Z,100785.00
2022-12-11T22:36:33.200Z,100779.78
2022-12-11T22:39:05.798Z,100791.81
2022-12-11T22:41:41.968Z,100789.84
2022-12-11T22:44:19.882Z,100784.88
2022-12-11T22:46:52.529Z,100782.38
2022-12-11T22:49:25.016Z,100785.91
2022-12-11T22:51:57.691Z,100783.13
2022-12-11T22:54:30.880Z,100783.84
2022-12-11T22:57:03.613Z,100775.91
2022-12-11T22:59:36.643Z,100778.03
2022-12-11T23:02:09.344Z,100772.81
2022-12-11T23:04:41.950Z,100775.38
2022-12-11T23:07:14.615Z,100776.34
2022-12-11T23:09:47.108Z,100777.25
2022-12-11T23:12:19.724Z,100776.28
2022-12-11T23:14:52.304Z,100773.66
2022-12-11T23:17:25.100Z,100772.72
2022-12-11T23:19:57.675Z,100780.34
2022-12-11T23:22:30.614Z,100775.84
2022-12-11T23:25:04.230Z,100780.09
2022-12-11T23:27:36.779Z,100781.66
2022-12-11T23:30:10.707Z,100774.72
2022-12-11T23:32:43.362Z,100783.28
2022-12-11T23:35:15.919Z,100777.81
2022-12-11T23:37:48.491Z,100778.31
2022-12-11T23:40:21.050Z,100785.88
2022-12-11T23:42:53.629Z,100790.09
2022-12-11T23:45:26.199Z,100791.72
2022-12-11T23:47:58.758Z,100790.63
2022-12-11T23:50:32.838Z,100794.63
2022-12-11T23:53:05.832Z,100799.59
2022-12-11T23:55:43.729Z,100795.81
2022-12-11T23:58:16.237Z,100792.22
